Time;durP1;ratioP1;P1;durP2;ratioP2;P2;SDS_P1;SDS_P2;PMS_P1;PMS_P2;Temp;Humidity;BMP_temperature;BMP_pressure;BME280_temperature;BME280_humidity;BME280_pressure;Samples;Min_cycle;Max_cycle;Signal;HPM_P1;HPM_P2
2023/09/04 00:00:28;;;;;;;17.80;12.88;;;16.30;1.00;;;;;;5069144;28;20407;-69
2023/09/04 00:02:53;;;;;;;15.20;12.23;;;16.30;1.00;;;;;;5069231;28;20407;-69
2023/09/04 00:05:19;;;;;;;14.57;12.40;;;16.20;1.00;;;;;;5069696;28;20399;-69
2023/09/04 00:07:45;;;;;;;14.07;11.93;;;16.30;1.00;;;;;;5069436;28;20408;-69
2023/09/04 00:10:12;;;;;;;13.07;11.40;;;16.20;1.00;;;;;;5069487;28;20411;-69
2023/09/04 00:12:38;;;;;;;15.48;12.43;;;16.20;1.00;;;;;;5068778;28;20411;-69
2023/09/04 00:15:05;;;;;;;13.52;11.85;;;16.20;1.00;;;;;;5069492;28;20431;-69
2023/09/04 00:17:30;;;;;;;14.37;12.53;;;16.20;1.00;;;;;;5068203;28;20479;-69
2023/09/04 00:19:56;;;;;;;14.05;12.40;;;16.20;3.00;;;;;;5068733;28;20569;-69
2023/09/04 00:22:22;;;;;;;13.50;11.88;;;16.20;3.50;;;;;;5068494;28;20514;-69
2023/09/04 00:24:48;;;;;;;16.63;12.80;;;16.20;3.70;;;;;;5068770;28;20396;-69
2023/09/04 00:27:14;;;;;;;14.90;12.52;;;16.20;3.20;;;;;;5067698;28;20434;-69
2023/09/04 00:29:39;;;;;;;18.90;12.02;;;16.20;2.90;;;;;;5068757;28;20431;-69
2023/09/04 00:32:06;;;;;;;14.30;12.20;;;16.10;1.70;;;;;;5068582;28;20545;-69
2023/09/04 00:34:32;;;;;;;14.63;12.65;;;16.10;2.40;;;;;;5067866;28;20439;-69
2023/09/04 00:36:58;;;;;;;13.37;11.73;;;16.00;3.80;;;;;;5068179;28;20403;-69
2023/09/04 00:39:24;;;;;;;12.93;11.10;;;16.00;4.50;;;;;;5055479;28;20400;-69
2023/09/04 00:41:49;;;;;;;13.23;11.18;;;16.00;4.40;;;;;;5058117;28;20402;-69
2023/09/04 00:44:16;;;;;;;12.40;10.83;;;15.90;3.30;;;;;;5066751;28;20439;-69
2023/09/04 00:46:43;;;;;;;14.07;11.60;;;15.90;2.40;;;;;;5067612;28;20396;-69
2023/09/04 00:49:11;;;;;;;14.10;12.20;;;15.90;2.20;;;;;;5085300;28;20405;-69
2023/09/04 00:51:38;;;;;;;16.50;12.45;;;15.80;2.20;;;;;;5086232;28;20481;-69
2023/09/04 00:54:04;;;;;;;14.55;12.88;;;15.80;2.30;;;;;;5068471;28;20427;-69
2023/09/04 00:56:30;;;;;;;12.70;11.40;;;15.80;2.20;;;;;;5068038;28;20414;-69
2023/09/04 00:58:56;;;;;;;14.30;12.35;;;15.80;1.80;;;;;;5068165;28;20407;-69
2023/09/04 01:01:22;;;;;;;16.52;12.35;;;15.70;1.40;;;;;;5067750;28;20402;-69
2023/09/04 01:03:47;;;;;;;13.65;12.15;;;15.60;1.10;;;;;;5066139;28;20420;-69
2023/09/04 01:06:14;;;;;;;15.23;13.02;;;15.60;2.20;;;;;;5066940;28;20766;-69
2023/09/04 01:08:39;;;;;;;14.75;13.07;;;15.60;2.50;;;;;;5053022;28;20416;-69
2023/09/04 01:11:26;;;;;;;15.60;13.40;;;15.60;3.70;;;;;;5066185;28;20400;-69
2023/09/04 01:13:54;;;;;;;15.45;13.23;;;15.60;5.40;;;;;;5057691;28;20439;-69
2023/09/04 01:16:22;;;;;;;16.20;14.13;;;15.50;6.70;;;;;;5065769;28;20461;-69
2023/09/04 01:18:48;;;;;;;16.08;14.10;;;15.50;7.60;;;;;;5059133;28;20415;-69
2023/09/04 01:21:14;;;;;;;16.70;14.68;;;15.50;7.60;;;;;;5068086;28;20419;-69
2023/09/04 01:23:40;;;;;;;15.63;13.23;;;15.50;9.00;;;;;;5070964;28;20408;-69
2023/09/04 01:26:06;;;;;;;14.37;12.87;;;15.40;10.50;;;;;;5050835;28;21035;-69
2023/09/04 01:28:47;;;;;;;16.30;14.00;;;15.40;10.50;;;;;;5073098;28;20404;-69
2023/09/04 01:31:45;;;;;;;16.30;14.02;;;15.40;10.50;;;;;;5069407;28;20443;-69
2023/09/04 01:34:17;;;;;;;15.73;13.25;;;15.40;11.90;;;;;;5070328;28;20471;-69
2023/09/04 01:36:44;;;;;;;15.30;13.60;;;15.40;12.10;;;;;;5072226;28;20412;-69
2023/09/04 01:39:10;;;;;;;15.82;14.00;;;15.30;11.10;;;;;;5070440;28;20403;-69
2023/09/04 01:41:39;;;;;;;16.27;13.63;;;15.30;10.80;;;;;;5072246;28;20404;-69
2023/09/04 01:44:06;;;;;;;17.08;14.13;;;15.30;12.10;;;;;;5071718;28;21189;-69
2023/09/04 01:46:32;;;;;;;15.07;13.48;;;15.30;11.90;;;;;;5068977;28;20444;-69
2023/09/04 01:48:58;;;;;;;14.77;13.25;;;15.20;12.10;;;;;;5071778;28;20395;-69
2023/09/04 01:51:24;;;;;;;15.75;13.68;;;15.20;12.80;;;;;;5071741;28;20438;-69
2023/09/04 01:53:49;;;;;;;15.73;14.07;;;15.20;14.00;;;;;;5066693;28;20429;-69
2023/09/04 01:56:15;;;;;;;16.03;14.20;;;15.20;14.50;;;;;;5067322;28;20866;-69
2023/09/04 01:58:40;;;;;;;18.38;14.40;;;15.10;14.60;;;;;;5071313;28;20404;-69
2023/09/04 02:01:06;;;;;;;16.63;14.10;;;15.10;15.30;;;;;;5070907;28;20414;-69
2023/09/04 02:03:33;;;;;;;15.35;13.75;;;15.10;15.20;;;;;;5074860;28;20399;-69
2023/09/04 02:05:58;;;;;;;18.42;15.10;;;15.10;14.90;;;;;;5070053;28;20514;-69
2023/09/04 02:08:24;;;;;;;17.48;14.98;;;15.00;14.50;;;;;;5071910;28;20477;-69
2023/09/04 02:10:50;;;;;;;16.40;14.67;;;15.00;14.50;;;;;;5071888;28;20408;-69
2023/09/04 02:13:16;;;;;;;18.83;16.23;;;15.00;14.10;;;;;;5070265;28;20435;-69
2023/09/04 02:15:41;;;;;;;19.30;17.20;;;15.00;14.60;;;;;;5070913;28;20424;-69
2023/09/04 02:18:07;;;;;;;19.17;17.13;;;14.90;14.60;;;;;;5071040;28;20410;-69
2023/09/04 02:20:32;;;;;;;18.75;16.75;;;14.90;15.10;;;;;;5070914;28;20399;-69
2023/09/04 02:22:58;;;;;;;19.07;16.17;;;14.90;14.30;;;;;;5070582;28;20487;-69
2023/09/04 02:25:25;;;;;;;20.17;16.60;;;14.90;14.00;;;;;;5070416;28;20399;-69
2023/09/04 02:27:51;;;;;;;18.67;16.63;;;14.80;15.10;;;;;;5070701;28;20962;-69
2023/09/04 02:30:16;;;;;;;18.77;16.77;;;14.90;16.10;;;;;;5071013;28;20407;-69
2023/09/04 02:32:43;;;;;;;20.15;17.10;;;14.80;16.90;;;;;;5070802;28;20476;-69
2023/09/04 02:35:09;;;;;;;19.83;17.42;;;14.80;15.60;;;;;;5071396;28;20431;-69
2023/09/04 02:37:35;;;;;;;20.00;17.97;;;14.70;15.80;;;;;;5065994;28;20413;-69
2023/09/04 02:40:00;;;;;;;20.48;18.27;;;14.80;15.90;;;;;;5066199;28;20434;-69
2023/09/04 02:42:29;;;;;;;22.85;18.63;;;14.80;16.20;;;;;;5053346;28;20773;-69
2023/09/04 02:44:55;;;;;;;20.47;18.23;;;14.70;16.70;;;;;;5071859;28;20403;-69
2023/09/04 02:47:20;;;;;;;21.77;18.73;;;14.70;17.90;;;;;;5071148;28;20498;-69
2023/09/04 02:49:46;;;;;;;21.00;18.67;;;14.70;18.30;;;;;;5071048;28;20956;-69
2023/09/04 02:52:12;;;;;;;22.27;18.35;;;14.70;18.60;;;;;;5060500;28;20404;-69
2023/09/04 02:54:37;;;;;;;19.90;17.63;;;14.70;19.00;;;;;;5071066;28;20892;-69
2023/09/04 02:57:03;;;;;;;20.73;17.75;;;14.60;19.20;;;;;;5066415;28;20425;-69
2023/09/04 02:59:29;;;;;;;20.85;17.73;;;14.60;18.90;;;;;;5066520;28;20961;-69
2023/09/04 03:01:55;;;;;;;19.13;17.15;;;14.60;19.40;;;;;;5070976;28;20410;-69
2023/09/04 03:04:20;;;;;;;20.30;17.17;;;14.60;19.30;;;;;;5072114;28;21121;-69
2023/09/04 03:06:46;;;;;;;19.63;17.52;;;14.60;19.10;;;;;;5070337;28;20886;-69
2023/09/04 03:09:15;;;;;;;20.47;17.67;;;14.50;19.20;;;;;;5072549;28;20406;-69
2023/09/04 03:11:41;;;;;;;19.67;17.58;;;14.50;19.30;;;;;;5060151;28;20404;-69
2023/09/04 03:14:06;;;;;;;19.33;17.23;;;14.50;19.70;;;;;;5073014;28;20510;-69
2023/09/04 03:16:32;;;;;;;18.95;16.95;;;14.50;20.20;;;;;;5073373;28;20411;-69
2023/09/04 03:18:58;;;;;;;18.63;16.70;;;14.50;19.30;;;;;;5071119;28;20408;-69
2023/09/04 03:21:23;;;;;;;19.00;16.60;;;14.50;19.10;;;;;;5072923;28;20431;-69
2023/09/04 03:23:52;;;;;;;19.80;16.60;;;14.50;19.00;;;;;;5072891;28;20404;-69
2023/09/04 03:26:18;;;;;;;18.52;16.50;;;14.50;19.20;;;;;;5062785;28;20511;-69
2023/09/04 03:28:44;;;;;;;19.48;17.38;;;14.40;19.00;;;;;;5072772;28;20501;-69
2023/09/04 03:31:14;;;;;;;18.30;15.88;;;14.40;19.20;;;;;;5066667;28;20405;-69
2023/09/04 03:33:40;;;;;;;18.67;16.73;;;14.40;19.40;;;;;;5066182;28;20514;-69
2023/09/04 03:36:05;;;;;;;17.57;15.70;;;14.40;19.80;;;;;;5071800;28;20886;-69
2023/09/04 03:38:31;;;;;;;17.75;15.85;;;14.40;19.70;;;;;;5072960;28;20396;-68
2023/09/04 03:40:57;;;;;;;17.87;15.97;;;14.40;19.80;;;;;;5071517;28;20420;-69
2023/09/04 03:43:22;;;;;;;17.27;15.43;;;14.40;19.80;;;;;;5073353;28;20792;-69
2023/09/04 03:45:48;;;;;;;18.20;16.03;;;14.30;20.10;;;;;;5071902;28;20399;-69
2023/09/04 03:48:14;;;;;;;19.60;16.83;;;14.40;20.20;;;;;;5073571;28;20412;-69
2023/09/04 03:50:39;;;;;;;22.43;19.20;;;14.30;20.30;;;;;;5072154;28;20981;-69
2023/09/04 03:53:05;;;;;;;22.13;18.10;;;14.30;20.60;;;;;;5070442;28;20420;-69
2023/09/04 03:55:31;;;;;;;18.00;16.10;;;14.30;20.30;;;;;;5072352;28;20412;-69
2023/09/04 03:57:58;;;;;;;18.33;16.40;;;14.30;20.00;;;;;;5073652;28;20423;-69
2023/09/04 04:00:24;;;;;;;18.58;16.23;;;14.20;20.00;;;;;;5071071;28;20952;-69
2023/09/04 04:02:51;;;;;;;17.23;15.43;;;14.20;20.20;;;;;;5071141;28;20444;-69
2023/09/04 04:05:18;;;;;;;16.58;14.77;;;14.20;20.50;;;;;;5071252;28;20909;-69
2023/09/04 04:07:44;;;;;;;16.70;14.88;;;14.20;20.80;;;;;;5071152;28;20483;-69
2023/09/04 04:10:10;;;;;;;18.15;15.10;;;14.20;20.30;;;;;;5065134;28;20509;-69
2023/09/04 04:12:36;;;;;;;16.52;14.07;;;14.10;20.60;;;;;;5065571;28;20431;-69
2023/09/04 04:15:05;;;;;;;17.17;14.60;;;14.10;20.50;;;;;;5068082;28;20486;-69
2023/09/04 04:17:32;;;;;;;14.77;13.20;;;14.10;20.30;;;;;;5070284;28;20441;-69
2023/09/04 04:19:58;;;;;;;16.00;14.30;;;14.10;20.10;;;;;;5068439;28;20399;-69
2023/09/04 04:22:23;;;;;;;16.30;14.50;;;14.00;20.60;;;;;;5069434;28;20400;-69
2023/09/04 04:24:50;;;;;;;16.33;14.53;;;14.00;21.40;;;;;;5061768;28;20415;-69
2023/09/04 04:27:16;;;;;;;16.08;13.82;;;14.00;21.10;;;;;;5074205;28;20945;-69
2023/09/04 04:29:43;;;;;;;15.25;13.65;;;14.00;22.30;;;;;;5061718;28;20407;-69
2023/09/04 04:32:09;;;;;;;14.90;13.15;;;13.90;22.70;;;;;;5074075;28;21047;-69
2023/09/04 04:34:34;;;;;;;15.00;13.37;;;13.90;22.80;;;;;;5071295;28;20463;-69
2023/09/04 04:37:00;;;;;;;14.55;13.02;;;13.90;22.70;;;;;;5073671;28;20398;-69
2023/09/04 04:39:26;;;;;;;13.40;12.00;;;13.90;22.90;;;;;;5071643;28;20486;-69
2023/09/04 04:41:52;;;;;;;14.30;12.75;;;13.90;22.90;;;;;;5073402;28;20394;-69
2023/09/04 04:44:17;;;;;;;14.65;13.05;;;13.90;22.80;;;;;;5062196;28;20397;-69
2023/09/04 04:46:43;;;;;;;15.77;13.37;;;13.90;22.70;;;;;;5064058;28;20435;-69
2023/09/04 04:49:09;;;;;;;14.65;13.15;;;13.90;22.90;;;;;;5067708;28;20403;-69
2023/09/04 04:51:35;;;;;;;15.63;13.48;;;13.80;23.50;;;;;;5058363;28;20432;-69
2023/09/04 04:54:00;;;;;;;15.03;12.97;;;13.80;24.10;;;;;;5061691;28;20986;-69
2023/09/04 04:56:27;;;;;;;15.00;13.05;;;13.90;24.30;;;;;;5069911;28;20413;-69
2023/09/04 04:58:52;;;;;;;13.88;12.48;;;13.80;24.80;;;;;;5065647;28;20398;-69
2023/09/04 05:01:18;;;;;;;14.73;13.13;;;13.80;25.80;;;;;;5067859;28;20426;-69
2023/09/04 05:03:43;;;;;;;14.15;12.65;;;13.80;25.70;;;;;;5061793;28;20468;-69
2023/09/04 05:06:10;;;;;;;14.27;12.33;;;13.80;25.70;;;;;;5071014;28;20865;-69
2023/09/04 05:08:36;;;;;;;14.27;12.63;;;13.80;26.10;;;;;;5071883;28;20475;-69
2023/09/04 05:11:03;;;;;;;15.25;13.18;;;13.80;26.70;;;;;;5071029;28;20481;-69
2023/09/04 05:13:29;;;;;;;15.23;12.75;;;13.80;27.10;;;;;;5069957;28;20439;-69
2023/09/04 05:15:55;;;;;;;15.35;13.05;;;13.80;27.40;;;;;;5074055;28;20788;-69
2023/09/04 05:18:21;;;;;;;15.05;13.45;;;13.80;27.40;;;;;;5073602;28;20408;-69
2023/09/04 05:20:47;;;;;;;15.73;13.20;;;13.80;28.10;;;;;;5075517;28;20398;-68
2023/09/04 05:23:13;;;;;;;15.57;12.50;;;13.90;28.40;;;;;;5053656;28;20419;-68
2023/09/04 05:25:50;;;;;;;15.07;13.27;;;13.90;29.10;;;;;;5072873;28;20528;-69
2023/09/04 05:28:16;;;;;;;15.48;13.27;;;13.90;29.30;;;;;;5063021;28;20430;-69
2023/09/04 05:30:41;;;;;;;15.50;13.82;;;13.90;29.40;;;;;;5071290;28;20422;-69
2023/09/04 05:33:07;;;;;;;15.93;12.80;;;13.90;29.70;;;;;;5073601;28;20782;-69
2023/09/04 05:35:33;;;;;;;16.63;13.60;;;14.00;30.10;;;;;;5057381;28;20493;-69
2023/09/04 05:37:58;;;;;;;16.60;14.43;;;14.00;31.30;;;;;;5073380;28;20430;-69
2023/09/04 05:40:25;;;;;;;16.42;14.45;;;14.10;32.90;;;;;;5071823;28;20402;-69
2023/09/04 05:42:51;;;;;;;19.05;14.23;;;14.10;33.80;;;;;;5073441;28;20406;-69
2023/09/04 05:45:17;;;;;;;15.85;13.60;;;14.20;34.90;;;;;;5071921;28;20411;-69
2023/09/04 05:47:43;;;;;;;15.07;13.48;;;14.20;35.40;;;;;;5064388;28;20403;-69
2023/09/04 05:50:09;;;;;;;14.75;13.00;;;14.30;35.70;;;;;;5070309;28;20805;-69
2023/09/04 05:52:36;;;;;;;14.32;12.82;;;14.40;36.10;;;;;;5073906;28;20461;-69
2023/09/04 05:55:02;;;;;;;17.40;14.02;;;14.40;36.80;;;;;;5077555;28;20532;-69
2023/09/04 05:57:28;;;;;;;17.25;14.00;;;14.50;38.00;;;;;;5070272;28;20412;-69
2023/09/04 05:59:53;;;;;;;17.70;14.00;;;14.50;38.80;;;;;;5074234;28;20406;-69
2023/09/04 06:02:19;;;;;;;16.50;13.98;;;14.60;39.30;;;;;;5074388;28;20546;-69
2023/09/04 06:04:45;;;;;;;18.70;14.30;;;14.70;40.70;;;;;;5074114;28;20423;-69
2023/09/04 06:07:10;;;;;;;16.88;13.52;;;14.80;40.50;;;;;;5073568;28;21007;-69
2023/09/04 06:09:39;;;;;;;16.30;13.53;;;14.90;40.80;;;;;;5076739;28;20433;-69
2023/09/04 06:12:10;;;;;;;14.73;12.43;;;14.90;41.10;;;;;;5072965;28;20991;-70
2023/09/04 06:14:36;;;;;;;15.93;12.55;;;14.90;40.50;;;;;;5070307;28;20548;-69
2023/09/04 06:17:01;;;;;;;15.20;12.63;;;15.00;40.50;;;;;;5070688;28;20425;-69
2023/09/04 06:19:27;;;;;;;13.95;12.55;;;15.00;40.20;;;;;;5071221;28;20419;-69
2023/09/04 06:21:54;;;;;;;15.25;12.55;;;15.10;39.80;;;;;;5070760;28;20403;-69
2023/09/04 06:24:20;;;;;;;13.40;11.27;;;15.20;39.80;;;;;;5071387;28;20400;-69
2023/09/04 06:26:45;;;;;;;12.98;11.48;;;15.20;38.50;;;;;;5070787;28;20407;-69
2023/09/04 06:29:11;;;;;;;15.83;10.90;;;15.20;37.80;;;;;;5070243;28;20750;-69
2023/09/04 06:31:37;;;;;;;13.68;10.45;;;15.20;36.40;;;;;;5052156;28;20439;-69
2023/09/04 06:34:03;;;;;;;12.83;10.50;;;15.30;34.90;;;;;;5069645;28;20516;-69
2023/09/04 06:36:29;;;;;;;12.10;10.20;;;15.30;33.50;;;;;;5062908;28;20586;-69
2023/09/04 06:38:55;;;;;;;13.18;10.73;;;15.40;32.50;;;;;;5052702;28;20403;-69
2023/09/04 06:41:21;;;;;;;11.90;10.70;;;15.40;31.40;;;;;;5063082;28;20779;-69
2023/09/04 06:43:47;;;;;;;12.45;10.80;;;15.50;30.30;;;;;;5069651;28;20431;-69
2023/09/04 06:46:13;;;;;;;13.40;10.38;;;15.60;29.40;;;;;;5070903;28;20506;-69
2023/09/04 06:48:39;;;;;;;10.98;9.82;;;15.60;27.30;;;;;;5069952;28;20765;-69
2023/09/04 06:51:05;;;;;;;11.35;10.15;;;15.70;26.40;;;;;;5063403;28;20399;-69
2023/09/04 06:53:31;;;;;;;11.88;10.32;;;15.70;24.80;;;;;;5069639;28;20514;-69
2023/09/04 06:55:57;;;;;;;11.93;10.60;;;15.80;24.00;;;;;;5070250;28;20898;-69
2023/09/04 06:58:24;;;;;;;11.57;10.30;;;15.80;22.40;;;;;;5070289;28;20494;-69
2023/09/04 07:00:52;;;;;;;12.15;10.63;;;15.90;20.20;;;;;;5070816;28;20415;-69
2023/09/04 07:03:17;;;;;;;12.25;10.63;;;15.90;18.90;;;;;;5069270;28;20457;-69
2023/09/04 07:05:43;;;;;;;12.47;11.13;;;16.00;19.10;;;;;;5070654;28;20415;-69
2023/09/04 07:08:09;;;;;;;13.70;10.90;;;16.00;17.30;;;;;;5069863;28;20408;-69
2023/09/04 07:10:35;;;;;;;12.10;10.80;;;16.10;16.70;;;;;;5070993;28;20401;-69
2023/09/04 07:13:02;;;;;;;11.65;10.45;;;16.20;16.40;;;;;;5067455;28;20773;-69
2023/09/04 07:15:27;;;;;;;12.32;10.73;;;16.30;13.00;;;;;;5070184;28;20469;-69
2023/09/04 07:17:53;;;;;;;12.87;10.83;;;16.40;9.50;;;;;;5069328;28;20427;-69
2023/09/04 07:20:19;;;;;;;12.48;10.90;;;16.40;6.20;;;;;;5070379;28;20403;-69
2023/09/04 07:22:44;;;;;;;12.27;11.03;;;16.50;5.70;;;;;;5070732;28;20413;-69
2023/09/04 07:25:11;;;;;;;12.95;10.23;;;16.50;5.80;;;;;;5070390;28;20399;-69
2023/09/04 07:27:37;;;;;;;11.13;9.95;;;16.60;5.60;;;;;;5069675;28;20466;-69
2023/09/04 07:30:03;;;;;;;12.88;10.68;;;16.70;4.80;;;;;;5051324;28;20914;-69
2023/09/04 07:32:29;;;;;;;11.80;10.27;;;16.70;5.30;;;;;;5071023;28;20437;-69
2023/09/04 07:34:56;;;;;;;11.70;10.45;;;16.80;5.80;;;;;;5061948;28;20431;-69
2023/09/04 07:37:26;;;;;;;13.07;10.57;;;16.80;6.10;;;;;;5069761;28;20410;-69
2023/09/04 07:39:53;;;;;;;10.93;9.65;;;16.90;7.60;;;;;;5070276;28;20766;-69
2023/09/04 07:42:19;;;;;;;13.80;9.73;;;17.00;7.90;;;;;;5066064;28;20404;-69
2023/09/04 07:44:45;;;;;;;11.82;8.93;;;17.10;7.70;;;;;;5070412;28;20759;-69
2023/09/04 07:47:10;;;;;;;12.25;8.82;;;17.20;7.00;;;;;;5068969;28;20537;-69
2023/09/04 07:49:36;;;;;;;11.60;8.87;;;17.20;5.70;;;;;;5051937;28;20781;-69
2023/09/04 07:52:02;;;;;;;9.25;8.07;;;17.40;5.50;;;;;;5069394;28;20424;-69
2023/09/04 07:54:28;;;;;;;10.05;7.82;;;17.40;1.40;;;;;;5070322;28;20461;-69
2023/09/04 07:56:53;;;;;;;9.17;8.17;;;17.50;1.00;;;;;;5061578;28;20400;-68
2023/09/04 07:59:19;;;;;;;10.57;8.50;;;17.60;1.00;;;;;;5061458;28;20420;-69
2023/09/04 08:01:45;;;;;;;8.27;6.50;;;17.70;1.00;;;;;;5068026;28;20403;-69
2023/09/04 08:04:13;;;;;;;7.68;6.70;;;17.80;1.00;;;;;;5069555;28;20408;-69
2023/09/04 08:06:39;;;;;;;9.55;6.85;;;17.90;1.00;;;;;;5068216;28;20457;-69
2023/09/04 08:09:05;;;;;;;8.77;7.05;;;18.00;1.00;;;;;;5069889;28;20416;-69
2023/09/04 08:11:30;;;;;;;7.35;6.53;;;18.10;1.00;;;;;;5068827;28;20524;-69
2023/09/04 08:13:56;;;;;;;8.50;6.68;;;18.20;1.00;;;;;;5067421;28;20431;-69
2023/09/04 08:16:22;;;;;;;8.37;6.47;;;18.20;1.00;;;;;;5074305;28;20404;-69
2023/09/04 08:18:47;;;;;;;7.63;6.68;;;18.30;1.00;;;;;;5071411;28;20990;-69
2023/09/04 08:21:13;;;;;;;7.70;5.70;;;18.40;1.00;;;;;;5075045;28;20415;-69
2023/09/04 08:23:39;;;;;;;8.13;6.07;;;18.50;1.00;;;;;;5071426;28;20423;-70
2023/09/04 08:26:06;;;;;;;6.60;5.47;;;18.60;1.00;;;;;;5071653;28;20412;-69
2023/09/04 08:28:31;;;;;;;6.30;4.90;;;18.70;1.00;;;;;;5057928;28;20420;-69
2023/09/04 08:30:57;;;;;;;7.77;5.27;;;18.80;1.00;;;;;;5058687;28;20416;-69
2023/09/04 08:33:23;;;;;;;5.85;5.22;;;18.90;1.00;;;;;;5058820;28;20422;-69
2023/09/04 08:35:48;;;;;;;6.93;5.45;;;18.90;1.00;;;;;;5068571;28;20399;-69
2023/09/04 08:38:14;;;;;;;6.27;5.40;;;19.00;1.00;;;;;;5068030;28;20403;-69
2023/09/04 08:40:41;;;;;;;7.80;4.90;;;19.10;1.00;;;;;;5069315;28;20461;-69
2023/09/04 08:43:11;;;;;;;6.13;4.40;;;19.20;99.90;;;;;;5068888;28;20408;-69
2023/09/04 08:45:40;;;;;;;5.05;4.10;;;19.30;99.90;;;;;;5047383;28;20418;-69
2023/09/04 08:48:07;;;;;;;6.30;4.32;;;19.40;99.90;;;;;;5067203;28;20898;-69
2023/09/04 08:50:33;;;;;;;5.00;3.75;;;19.50;99.90;;;;;;5067441;28;20396;-69
2023/09/04 08:52:59;;;;;;;4.15;3.13;;;19.60;99.90;;;;;;5067776;28;21029;-69
2023/09/04 08:55:26;;;;;;;3.70;3.05;;;19.70;99.90;;;;;;5032734;28;20495;-69
2023/09/04 08:57:52;;;;;;;4.75;2.72;;;19.80;99.90;;;;;;5067854;28;20415;-69
2023/09/04 09:00:18;;;;;;;4.50;2.78;;;19.80;99.90;;;;;;5067177;28;20414;-69
2023/09/04 09:02:44;;;;;;;4.40;2.63;;;20.00;99.90;;;;;;5049020;28;20416;-69
2023/09/04 09:05:13;;;;;;;4.28;2.60;;;20.10;99.90;;;;;;5048905;28;20407;-70
2023/09/04 09:07:40;;;;;;;4.77;2.80;;;20.20;99.90;;;;;;5067429;28;20400;-70
2023/09/04 09:10:09;;;;;;;5.60;2.58;;;20.20;99.90;;;;;;5058341;28;20403;-69
2023/09/04 09:12:35;;;;;;;5.50;2.83;;;20.30;99.90;;;;;;5067179;28;20404;-69
2023/09/04 09:15:01;;;;;;;4.55;2.35;;;20.40;1.00;;;;;;5056405;28;20426;-69
2023/09/04 09:17:26;;;;;;;3.42;2.53;;;20.40;99.90;;;;;;5067949;28;20404;-69
2023/09/04 09:19:52;;;;;;;4.47;2.60;;;20.60;99.90;;;;;;5067936;28;20403;-70
2023/09/04 09:22:19;;;;;;;5.27;2.10;;;21.20;1.00;;;;;;5049808;28;20405;-70
2023/09/04 09:24:59;;;;;;;4.70;2.70;;;22.20;1.00;;;;;;5039447;28;20897;-69
2023/09/04 09:27:30;;;;;;;4.97;2.83;;;23.20;99.90;;;;;;5065196;28;20539;-70
2023/09/04 09:29:57;;;;;;;5.20;2.50;;;23.90;99.90;;;;;;5067943;28;20491;-70
2023/09/04 09:32:26;;;;;;;5.72;2.40;;;24.50;24.00;;;;;;5067032;28;20408;-70
2023/09/04 09:34:53;;;;;;;4.53;2.28;;;24.90;99.90;;;;;;5067935;28;20433;-70
2023/09/04 09:37:23;;;;;;;3.80;2.13;;;25.30;1.00;;;;;;5068330;28;20395;-70
2023/09/04 09:39:49;;;;;;;3.20;2.05;;;25.60;1.00;;;;;;5068282;28;20804;-70
2023/09/04 09:42:15;;;;;;;2.97;1.90;;;26.00;99.90;;;;;;5068084;28;20399;-70
2023/09/04 09:44:41;;;;;;;3.03;2.00;;;26.30;99.90;;;;;;5067979;28;20743;-70
2023/09/04 09:47:13;;;;;;;3.40;1.80;;;26.50;99.90;;;;;;5067999;28;20406;-70
2023/09/04 09:49:40;;;;;;;2.60;2.17;;;26.60;99.90;;;;;;5050386;28;20408;-70
2023/09/04 09:52:16;;;;;;;3.80;2.67;;;26.80;99.90;;;;;;5041110;28;20411;-70
2023/09/04 09:54:43;;;;;;;4.43;2.42;;;27.00;99.90;;;;;;5068042;28;20446;-70
2023/09/04 09:57:14;;;;;;;3.72;2.42;;;27.20;99.90;;;;;;5067700;28;20404;-70
2023/09/04 09:59:48;;;;;;;4.68;2.50;;;27.30;99.90;;;;;;5070323;28;20463;-70
2023/09/04 10:02:26;;;;;;;4.10;2.22;;;27.60;99.90;;;;;;5070821;28;20404;-71
2023/09/04 10:04:53;;;;;;;3.17;2.00;;;28.00;99.90;;;;;;5070938;28;20424;-70
2023/09/04 10:07:25;;;;;;;5.77;3.07;;;28.10;99.90;;;;;;5070718;28;20406;-70
2023/09/04 10:10:03;;;;;;;4.75;2.60;;;28.30;99.90;;;;;;5070682;28;20788;-70
2023/09/04 10:12:33;;;;;;;3.53;3.03;;;28.60;99.90;;;;;;5071443;28;20450;-70
2023/09/04 10:15:00;;;;;;;4.90;2.40;;;28.80;99.90;;;;;;5070995;28;20428;-70
2023/09/04 10:17:39;;;;;;;4.75;1.60;;;28.80;99.90;;;;;;5072143;28;20905;-70
2023/09/04 10:20:05;;;;;;;3.15;1.50;;;29.00;99.90;;;;;;5060969;28;20485;-70
2023/09/04 10:22:43;;;;;;;2.25;1.50;;;29.20;99.90;;;;;;5074350;28;20430;-70
2023/09/04 10:25:23;;;;;;;2.85;1.30;;;29.50;99.90;;;;;;5070676;28;20400;-70
2023/09/04 10:27:54;;;;;;;3.55;1.20;;;29.70;99.90;;;;;;5066317;28;20413;-70
2023/09/04 10:30:23;;;;;;;3.92;1.55;;;29.60;99.90;;;;;;5065515;28;20400;-70
2023/09/04 10:32:49;;;;;;;2.60;1.30;;;29.60;99.90;;;;;;5070166;28;20423;-70
2023/09/04 10:35:15;;;;;;;2.63;1.20;;;29.60;99.90;;;;;;5070190;28;20427;-70
2023/09/04 10:37:42;;;;;;;3.38;1.30;;;29.80;99.90;;;;;;5069380;28;20456;-70
2023/09/04 10:40:10;;;;;;;2.65;1.58;;;30.00;99.90;;;;;;5069813;28;20403;-70
2023/09/04 10:42:38;;;;;;;2.57;1.40;;;30.10;99.90;;;;;;5069143;28;20407;-70
2023/09/04 10:45:20;;;;;;;3.53;1.80;;;30.30;99.90;;;;;;5069599;28;20411;-70
2023/09/04 10:47:49;;;;;;;;;;;30.50;99.90;;;;;;5056647;28;20135;-70
2023/09/04 10:50:27;;;;;;;;;;;30.80;99.90;;;;;;5077380;28;19920;-71
2023/09/04 10:52:53;;;;;;;;;;;31.00;99.90;;;;;;5074343;28;19942;-71
2023/09/04 10:55:19;;;;;;;;;;;31.10;99.90;;;;;;5074225;28;19928;-70
2023/09/04 10:57:55;;;;;;;;;;;31.00;99.90;;;;;;5070601;28;19921;-70
2023/09/04 11:00:30;;;;;;;;;;;31.20;99.90;;;;;;5067332;28;19924;-70
2023/09/04 11:02:57;;;;;;;;;;;31.30;99.90;;;;;;5061364;28;20426;-70
2023/09/04 11:05:23;;;;;;;;;;;31.20;99.90;;;;;;5070465;28;19927;-71
2023/09/04 11:07:48;;;;;;;;;;;31.10;99.90;;;;;;5067398;28;19920;-71
2023/09/04 11:10:14;;;;;;;;;;;31.10;99.90;;;;;;5069181;28;19978;-71
2023/09/04 11:12:42;;;;;;;;;;;31.20;99.90;;;;;;5069923;28;19932;-71
2023/09/04 11:15:11;;;;;;;;;;;31.10;99.90;;;;;;5076700;28;20306;-70
2023/09/04 11:17:38;;;;;;;;;;;31.10;99.90;;;;;;5069551;28;19928;-71
2023/09/04 11:20:04;;;;;;;;;;;31.10;99.90;;;;;;5069606;28;20604;-71
2023/09/04 11:22:32;;;;;;;;;;;31.00;99.90;;;;;;5074582;28;20011;-70
2023/09/04 11:24:57;;;;;;;;;;;31.30;99.90;;;;;;5070839;28;20370;-71
2023/09/04 11:27:24;;;;;;;;;;;31.50;99.90;;;;;;5071643;28;19967;-71
2023/09/04 11:29:50;;;;;;;;;;;31.50;99.90;;;;;;5063588;28;19920;-70
2023/09/04 11:32:16;;;;;;;;;;;31.60;99.90;;;;;;5074052;28;20309;-71
2023/09/04 11:34:45;;;;;;;;;;;31.70;99.90;;;;;;5065699;28;19978;-71
2023/09/04 11:37:12;;;;;;;;;;;31.80;99.90;;;;;;5054742;28;19920;-70
2023/09/04 11:39:57;;;;;;;;;;;32.00;99.90;;;;;;5070830;28;19999;-70
2023/09/04 11:42:24;;;;;;;;;;;32.30;99.90;;;;;;5052521;28;19931;-71
2023/09/04 11:44:50;;;;;;;;;;;32.60;99.90;;;;;;5074012;28;20353;-71
2023/09/04 11:47:16;;;;;;;;;;;32.70;99.90;;;;;;5071684;28;19935;-71
2023/09/04 11:49:42;;;;;;;;;;;32.60;99.90;;;;;;5063235;28;19997;-71
2023/09/04 11:52:07;;;;;;;;;;;32.40;99.90;;;;;;5076319;28;21234;-70
2023/09/04 11:54:36;;;;;;;;;;;32.30;99.90;;;;;;5066835;28;20371;-71
2023/09/04 11:57:04;;;;;;;;;;;32.30;99.90;;;;;;5077959;28;19920;-76
2023/09/04 11:59:34;;;;;;;;;;;32.40;99.90;;;;;;5065953;28;20294;-70
2023/09/04 12:02:00;;;;;;;;;;;32.70;99.90;;;;;;5061219;28;19980;-72
2023/09/04 12:04:26;;;;;;;;;;;32.90;99.90;;;;;;5073755;28;20028;-72
2023/09/04 12:06:52;;;;;;;;;;;32.90;99.90;;;;;;5067086;28;21080;-72
2023/09/04 12:09:18;;;;;;;;;;;32.80;99.90;;;;;;5073826;28;20007;-72
2023/09/04 12:11:43;;;;;;;;;;;32.80;99.90;;;;;;5074183;28;20012;-72
2023/09/04 12:14:10;;;;;;;;;;;32.80;99.90;;;;;;5071672;28;19930;-72
2023/09/04 12:16:35;;;;;;;;;;;32.80;99.90;;;;;;5066761;28;20065;-72
2023/09/04 12:19:01;;;;;;;;;;;32.80;99.90;;;;;;5063201;28;20863;-71
2023/09/04 12:21:26;;;;;;;;;;;32.80;99.90;;;;;;5072452;28;19973;-72
2023/09/04 12:23:54;;;;;;;;;;;32.70;99.90;;;;;;5072313;28;19927;-72
2023/09/04 12:26:20;;;;;;;;;;;32.70;99.90;;;;;;5070616;28;19974;-71
2023/09/04 12:28:46;;;;;;;;;;;32.70;99.90;;;;;;5067007;28;20441;-72
2023/09/04 12:31:12;;;;;;;;;;;32.90;99.90;;;;;;5060249;28;19942;-71
2023/09/04 12:33:41;;;;;;;;;;;33.10;99.90;;;;;;5069704;28;19927;-72
2023/09/04 12:36:11;;;;;;;;;;;33.10;99.90;;;;;;5062329;28;20007;-72
2023/09/04 12:38:37;;;;;;;;;;;33.30;99.90;;;;;;5065441;28;19924;-72
2023/09/04 12:41:03;;;;;;;;;;;33.40;99.90;;;;;;5070197;28;20443;-71
2023/09/04 12:43:29;;;;;;;;;;;33.50;99.90;;;;;;5070072;28;19930;-72
2023/09/04 12:45:54;;;;;;;;;;;33.50;99.90;;;;;;5063933;28;20294;-72
2023/09/04 12:48:21;;;;;;;;;;;33.60;99.90;;;;;;5065452;28;19966;-72